Time;durP1;ratioP1;P1;durP2;ratioP2;P2;SDS_P1;SDS_P2;PMS_P1;PMS_P2;Temp;Humidity;BMP_temperature;BMP_pressure;BME280_temperature;BME280_humidity;BME280_pressure;Samples;Min_cycle;Max_cycle;Signal;HPM_P1;HPM_P2
2023/09/26 00:01:46;;;;;;;0.85;0.85;;;21.70;62.40;;;;;;6270247;28;20029;-69
2023/09/26 00:04:47;;;;;;;1.20;0.93;;;21.70;62.40;;;;;;6262185;28;20532;-69
2023/09/26 00:07:48;;;;;;;1.42;1.20;;;21.70;62.50;;;;;;6269239;28;20021;-69
2023/09/26 00:10:49;;;;;;;1.48;0.90;;;21.70;62.50;;;;;;6262003;28;20028;-69
2023/09/26 00:13:50;;;;;;;1.27;0.85;;;21.70;62.60;;;;;;6269876;28;20047;-68
2023/09/26 00:16:50;;;;;;;1.10;0.90;;;21.70;62.40;;;;;;6260463;28;20602;-69
2023/09/26 00:19:51;;;;;;;1.15;0.80;;;21.70;62.40;;;;;;6261619;28;20076;-68
2023/09/26 00:22:52;;;;;;;1.48;0.98;;;21.70;62.30;;;;;;6269706;28;20021;-69
2023/09/26 00:25:53;;;;;;;0.98;0.80;;;21.70;62.00;;;;;;6261941;28;20028;-69
2023/09/26 00:28:54;;;;;;;1.00;0.85;;;21.70;61.80;;;;;;6261243;28;20049;-69
2023/09/26 00:31:54;;;;;;;1.10;0.80;;;21.70;61.90;;;;;;6252978;28;20565;-69
2023/09/26 00:34:55;;;;;;;2.13;0.90;;;21.70;62.00;;;;;;6259346;28;20071;-69
2023/09/26 00:37:56;;;;;;;1.15;0.95;;;21.70;62.00;;;;;;6267326;28;20052;-69
2023/09/26 00:40:57;;;;;;;1.10;0.70;;;21.70;62.00;;;;;;6261117;28;20085;-69
2023/09/26 00:43:58;;;;;;;1.05;0.82;;;21.70;61.90;;;;;;6268612;28;20857;-69
2023/09/26 00:47:01;;;;;;;1.13;0.90;;;21.70;62.00;;;;;;6269282;28;20036;-69
2023/09/26 00:50:07;;;;;;;0.80;0.80;;;21.70;61.80;;;;;;6267923;28;20099;-69
2023/09/26 00:53:08;;;;;;;0.85;0.80;;;21.70;61.70;;;;;;6268221;28;20078;-69
2023/09/26 00:56:09;;;;;;;1.00;0.70;;;21.70;61.80;;;;;;6269237;28;20076;-69
2023/09/26 00:59:10;;;;;;;0.85;0.70;;;21.70;61.70;;;;;;6268782;28;20043;-70
2023/09/26 01:02:11;;;;;;;1.10;0.80;;;21.70;61.80;;;;;;6259545;28;20630;-69
2023/09/26 01:05:12;;;;;;;1.02;0.90;;;21.70;61.50;;;;;;6262183;28;20583;-69
2023/09/26 01:08:13;;;;;;;1.42;0.88;;;21.70;61.70;;;;;;6267505;28;20021;-69
2023/09/26 01:11:15;;;;;;;1.02;0.70;;;21.70;62.00;;;;;;6265195;28;20026;-69
2023/09/26 01:14:15;;;;;;;1.20;0.80;;;21.70;62.20;;;;;;6254480;28;20024;-69
2023/09/26 01:17:16;;;;;;;1.30;0.80;;;21.70;62.00;;;;;;6268751;28;20480;-68
2023/09/26 01:20:19;;;;;;;1.20;0.90;;;21.70;62.00;;;;;;6268738;28;20538;-69
2023/09/26 01:23:24;;;;;;;1.25;0.70;;;21.70;62.00;;;;;;6268234;28;20067;-70
2023/09/26 01:26:25;;;;;;;1.00;0.70;;;21.70;61.90;;;;;;6268594;28;20029;-69
2023/09/26 01:29:26;;;;;;;1.10;0.80;;;21.70;62.00;;;;;;6253289;28;20065;-68
2023/09/26 01:32:27;;;;;;;0.80;0.70;;;21.70;62.10;;;;;;6257164;28;20120;-69
2023/09/26 01:35:27;;;;;;;1.10;0.88;;;21.70;61.90;;;;;;6265782;28;20067;-69
2023/09/26 01:38:28;;;;;;;1.17;1.00;;;21.70;61.70;;;;;;6266782;28;20416;-69
2023/09/26 01:41:29;;;;;;;1.42;1.00;;;21.70;62.10;;;;;;6266811;28;20028;-70
2023/09/26 01:44:30;;;;;;;0.70;0.70;;;21.70;62.00;;;;;;6266733;28;20024;-69
2023/09/26 01:47:50;;;;;;;1.50;0.80;;;21.70;61.80;;;;;;6267939;28;20064;-69
2023/09/26 01:50:51;;;;;;;1.33;1.00;;;21.70;62.00;;;;;;6250715;28;20021;-69
2023/09/26 01:53:51;;;;;;;1.25;0.90;;;21.70;62.20;;;;;;6243677;28;20033;-69
2023/09/26 01:56:52;;;;;;;1.10;0.90;;;21.70;62.10;;;;;;6257968;28;20118;-69
2023/09/26 01:59:53;;;;;;;0.75;0.73;;;21.70;61.90;;;;;;6267146;28;20028;-69
2023/09/26 02:02:54;;;;;;;0.77;0.73;;;21.70;61.80;;;;;;6266747;28;20484;-69
2023/09/26 02:05:57;;;;;;;1.52;0.80;;;21.70;62.30;;;;;;6267790;28;20036;-69
2023/09/26 02:08:57;;;;;;;1.20;0.82;;;21.70;62.40;;;;;;6258516;28;20431;-69
2023/09/26 02:11:58;;;;;;;1.00;0.85;;;21.70;62.40;;;;;;6250465;28;20021;-68
2023/09/26 02:15:01;;;;;;;1.10;0.90;;;21.70;62.30;;;;;;6252199;28;20044;-69
2023/09/26 02:18:02;;;;;;;1.10;0.85;;;21.70;62.40;;;;;;6257831;28;20494;-69
2023/09/26 02:21:02;;;;;;;1.00;0.75;;;21.70;62.30;;;;;;6254261;28;20056;-69
2023/09/26 02:24:03;;;;;;;0.60;0.60;;;21.70;62.20;;;;;;6257706;28;20033;-69
2023/09/26 02:27:04;;;;;;;1.02;0.80;;;21.70;62.20;;;;;;6252349;28;20079;-68
2023/09/26 02:30:08;;;;;;;1.08;0.80;;;21.70;62.20;;;;;;6253384;28;20097;-69
2023/09/26 02:33:09;;;;;;;1.10;0.80;;;21.70;62.20;;;;;;6267912;28;20013;-69
2023/09/26 02:36:10;;;;;;;1.23;1.00;;;21.70;62.50;;;;;;6265719;28;20048;-69
2023/09/26 02:39:11;;;;;;;1.92;0.82;;;21.70;62.40;;;;;;6258483;28;20477;-69
2023/09/26 02:42:13;;;;;;;1.35;1.10;;;21.70;62.20;;;;;;6272329;28;20506;-69
2023/09/26 02:45:14;;;;;;;1.15;0.70;;;21.70;62.20;;;;;;6251254;28;20075;-69
2023/09/26 02:48:15;;;;;;;1.50;1.00;;;21.70;62.30;;;;;;6265423;28;20029;-69
2023/09/26 02:51:15;;;;;;;0.90;0.80;;;21.70;62.40;;;;;;6272195;28;20083;-69
2023/09/26 02:54:16;;;;;;;0.80;0.70;;;21.70;62.40;;;;;;6266819;28;20024;-70
2023/09/26 02:57:18;;;;;;;1.00;0.80;;;21.70;62.50;;;;;;6259226;28;20017;-69
2023/09/26 03:00:19;;;;;;;1.25;0.82;;;21.70;62.50;;;;;;6270951;28;20495;-70
2023/09/26 03:03:20;;;;;;;1.10;0.73;;;21.60;62.60;;;;;;6262661;28;20099;-69
2023/09/26 03:06:21;;;;;;;1.10;0.82;;;21.60;62.70;;;;;;6246964;28;20481;-69
2023/09/26 03:09:22;;;;;;;1.20;1.00;;;21.60;62.70;;;;;;6266478;28;20106;-69
2023/09/26 03:12:22;;;;;;;0.82;0.77;;;21.60;62.50;;;;;;6258857;28;20325;-69
2023/09/26 03:15:23;;;;;;;1.40;0.80;;;21.70;62.70;;;;;;6250638;28;20384;-69
2023/09/26 03:18:25;;;;;;;1.00;0.70;;;21.70;62.50;;;;;;6259470;28;20064;-69
2023/09/26 03:21:25;;;;;;;0.90;0.80;;;21.70;62.70;;;;;;6257349;28;20025;-69
2023/09/26 03:24:26;;;;;;;1.15;0.90;;;21.60;62.90;;;;;;6261858;28;20083;-69
2023/09/26 03:27:26;;;;;;;1.15;0.80;;;21.60;62.70;;;;;;6245715;28;20361;-69
2023/09/26 03:30:27;;;;;;;0.80;0.68;;;21.60;62.70;;;;;;6267838;28;20092;-69
2023/09/26 03:33:28;;;;;;;1.08;0.85;;;21.60;62.70;;;;;;6260657;28;20032;-69
2023/09/26 03:36:29;;;;;;;0.70;0.60;;;21.60;62.80;;;;;;6269583;28;20631;-69
2023/09/26 03:39:30;;;;;;;1.52;0.90;;;21.60;62.80;;;;;;6270915;28;20587;-70
2023/09/26 03:42:32;;;;;;;0.88;0.75;;;21.60;62.70;;;;;;6254656;28;20056;-68
2023/09/26 03:45:32;;;;;;;0.80;0.65;;;21.60;62.60;;;;;;6269437;28;20488;-69
2023/09/26 03:48:34;;;;;;;1.20;0.70;;;21.60;62.90;;;;;;6270798;28;20040;-69
2023/09/26 03:51:35;;;;;;;0.70;0.70;;;21.60;63.00;;;;;;6270501;28;20025;-67
2023/09/26 03:54:37;;;;;;;1.05;0.80;;;21.60;63.00;;;;;;6269785;28;20087;-69
2023/09/26 03:57:37;;;;;;;1.02;0.75;;;21.60;62.90;;;;;;6269574;28;20474;-69
2023/09/26 04:00:41;;;;;;;0.85;0.70;;;21.60;63.00;;;;;;6270736;28;20039;-69
2023/09/26 04:03:51;;;;;;;1.27;0.90;;;21.60;63.00;;;;;;6254964;28;20135;-69
2023/09/26 04:06:52;;;;;;;1.20;0.95;;;21.60;62.90;;;;;;6251970;28;20502;-70
2023/09/26 04:09:53;;;;;;;0.70;0.70;;;21.60;63.00;;;;;;6253134;28;20025;-70
2023/09/26 04:12:53;;;;;;;0.93;0.75;;;21.60;63.00;;;;;;6270030;28;20025;-69
2023/09/26 04:15:54;;;;;;;1.02;0.88;;;21.60;63.00;;;;;;6270211;28;20076;-69
2023/09/26 04:18:55;;;;;;;0.82;0.70;;;21.60;63.10;;;;;;6268747;28;20032;-68
2023/09/26 04:21:56;;;;;;;0.77;0.75;;;21.60;63.10;;;;;;6269097;28;20029;-69
2023/09/26 04:24:57;;;;;;;0.93;0.70;;;21.60;63.00;;;;;;6246588;28;20539;-68
2023/09/26 04:27:58;;;;;;;1.15;0.70;;;21.60;62.90;;;;;;6268647;28;20514;-69
2023/09/26 04:30:58;;;;;;;1.17;0.95;;;21.60;63.00;;;;;;6269495;28;20028;-69
2023/09/26 04:33:59;;;;;;;1.25;0.70;;;21.60;63.00;;;;;;6268285;28;20021;-70
2023/09/26 04:37:00;;;;;;;1.05;0.70;;;21.60;63.00;;;;;;6261966;28;20632;-69
2023/09/26 04:40:00;;;;;;;0.85;0.75;;;21.60;63.00;;;;;;6251672;28;20084;-69
2023/09/26 04:43:05;;;;;;;0.75;0.70;;;21.60;62.90;;;;;;6250595;28;20079;-69
2023/09/26 04:46:11;;;;;;;0.80;0.73;;;21.60;62.80;;;;;;6263452;28;20445;-69
2023/09/26 04:49:12;;;;;;;1.40;0.98;;;21.60;62.40;;;;;;6267710;28;20128;-69
2023/09/26 04:52:12;;;;;;;0.90;0.80;;;21.60;62.70;;;;;;6267907;28;20017;-69
2023/09/26 04:55:14;;;;;;;0.93;0.80;;;21.60;62.90;;;;;;6269456;28;20025;-69
2023/09/26 04:58:14;;;;;;;0.77;0.63;;;21.60;63.00;;;;;;6256252;28;20443;-69
2023/09/26 05:01:16;;;;;;;0.90;0.80;;;21.60;63.10;;;;;;6255797;28;20025;-70
2023/09/26 05:04:17;;;;;;;0.90;0.75;;;21.60;63.00;;;;;;6254696;28;20024;-69
2023/09/26 05:07:18;;;;;;;0.85;0.77;;;21.60;62.70;;;;;;6255369;28;20013;-70
2023/09/26 05:10:19;;;;;;;0.82;0.65;;;21.60;62.90;;;;;;6268552;28;20017;-69
2023/09/26 05:13:20;;;;;;;0.73;0.65;;;21.60;63.00;;;;;;6255950;28;20045;-69
2023/09/26 05:16:21;;;;;;;1.00;0.73;;;21.60;63.70;;;;;;6256004;28;20025;-69
2023/09/26 05:19:21;;;;;;;0.98;0.85;;;21.60;63.00;;;;;;6247313;28;20652;-69
2023/09/26 05:22:23;;;;;;;1.48;0.80;;;21.60;62.80;;;;;;6264983;28;20025;-68
2023/09/26 05:25:24;;;;;;;1.35;1.10;;;21.60;62.70;;;;;;6248547;28;20021;-71
2023/09/26 05:28:24;;;;;;;0.95;0.80;;;21.60;62.50;;;;;;6263160;28;20040;-69
2023/09/26 05:31:29;;;;;;;1.10;0.90;;;21.60;62.70;;;;;;6267872;28;20025;-69
2023/09/26 05:34:30;;;;;;;1.10;0.80;;;21.60;63.00;;;;;;6273303;28;20457;-69
2023/09/26 05:37:31;;;;;;;0.95;0.80;;;21.60;62.90;;;;;;6261154;28;20045;-69
2023/09/26 05:40:31;;;;;;;16.13;1.38;;;21.60;62.70;;;;;;6268619;28;20028;-68
2023/09/26 05:43:34;;;;;;;68.40;3.28;;;21.70;64.20;;;;;;6276998;28;20044;-69
2023/09/26 05:46:35;;;;;;;38.30;2.60;;;21.70;63.30;;;;;;6265756;28;20029;-70
2023/09/26 05:49:36;;;;;;;28.98;2.10;;;21.70;62.90;;;;;;6262831;28;20021;-70
2023/09/26 05:52:36;;;;;;;21.98;1.70;;;21.70;62.80;;;;;;6262451;28;20025;-69
2023/09/26 05:55:37;;;;;;;22.88;2.03;;;21.70;62.80;;;;;;6273854;28;20032;-69
2023/09/26 05:58:38;;;;;;;19.13;2.42;;;21.70;62.40;;;;;;6271879;28;20052;-70
2023/09/26 06:01:39;;;;;;;15.80;2.22;;;21.70;62.40;;;;;;6269428;28;20501;-69
2023/09/26 06:04:41;;;;;;;8.52;1.20;;;21.70;62.40;;;;;;6266207;28;20056;-69
2023/09/26 06:07:42;;;;;;;25.00;2.65;;;21.70;62.70;;;;;;6268958;28;20028;-69
2023/09/26 06:10:45;;;;;;;12.73;2.17;;;21.70;62.30;;;;;;6269749;28;20495;-69
2023/09/26 06:13:47;;;;;;;11.77;1.85;;;21.60;61.80;;;;;;6262297;28;20021;-69
2023/09/26 06:16:48;;;;;;;5.80;1.75;;;21.70;62.00;;;;;;6258449;28;20025;-69
2023/09/26 06:19:49;;;;;;;6.55;1.30;;;21.70;62.00;;;;;;6257141;28;20033;-69
2023/09/26 06:22:50;;;;;;;4.82;1.67;;;21.70;62.90;;;;;;6258586;28;20040;-69
2023/09/26 06:25:58;;;;;;;5.15;1.50;;;21.70;62.00;;;;;;6265323;28;20392;-69
2023/09/26 06:28:59;;;;;;;6.45;1.42;;;21.60;62.20;;;;;;6265202;28;20476;-69
2023/09/26 06:31:59;;;;;;;5.95;1.88;;;21.60;62.00;;;;;;6274473;28;20018;-69
2023/09/26 06:35:02;;;;;;;4.13;1.27;;;21.70;62.20;;;;;;6274343;28;20020;-69
2023/09/26 06:38:02;;;;;;;7.10;1.30;;;21.60;62.20;;;;;;6265649;28;20041;-69
2023/09/26 06:41:05;;;;;;;6.00;1.73;;;21.60;62.20;;;;;;6272899;28;20098;-68
2023/09/26 06:44:06;;;;;;;3.80;1.33;;;21.60;62.60;;;;;;6269877;28;20135;-69
2023/09/26 06:47:07;;;;;;;4.55;1.70;;;21.60;63.10;;;;;;6265080;28;20032;-69
2023/09/26 06:50:10;;;;;;;4.22;1.52;;;21.60;62.50;;;;;;6272977;28;20178;-69
2023/09/26 06:53:11;;;;;;;5.18;1.10;;;21.60;62.80;;;;;;6264621;28;20063;-69
2023/09/26 06:56:11;;;;;;;3.03;0.98;;;21.60;62.90;;;;;;6272769;28;20388;-69
2023/09/26 06:59:12;;;;;;;2.42;1.35;;;21.60;63.00;;;;;;6272292;28;20028;-69
2023/09/26 07:02:13;;;;;;;3.13;1.80;;;21.60;62.60;;;;;;6270101;28;20026;-69
2023/09/26 07:05:13;;;;;;;4.45;1.40;;;21.60;62.60;;;;;;6260427;28;20029;-69
2023/09/26 07:08:15;;;;;;;5.28;1.50;;;21.60;61.90;;;;;;6268739;28;20091;-69
2023/09/26 07:11:15;;;;;;;2.65;1.00;;;21.60;62.60;;;;;;6260438;28;20035;-68
2023/09/26 07:14:16;;;;;;;2.58;1.30;;;21.60;62.70;;;;;;6257241;28;20032;-69
2023/09/26 07:17:17;;;;;;;4.70;1.45;;;21.60;62.70;;;;;;6264618;28;20543;-69
2023/09/26 07:20:19;;;;;;;4.20;1.50;;;21.60;62.70;;;;;;6261352;28;20026;-69
2023/09/26 07:23:20;;;;;;;2.65;1.42;;;21.60;62.70;;;;;;6268977;28;20104;-69
2023/09/26 07:26:20;;;;;;;2.42;1.33;;;21.60;62.80;;;;;;6271453;28;20035;-69
2023/09/26 07:29:22;;;;;;;1.88;1.45;;;21.60;62.80;;;;;;6264785;28;20025;-69
2023/09/26 07:32:24;;;;;;;2.63;1.38;;;21.60;62.90;;;;;;6273111;28;20029;-69
2023/09/26 07:35:25;;;;;;;1.85;1.30;;;21.60;62.90;;;;;;6273200;28;20121;-69
2023/09/26 07:38:26;;;;;;;2.58;1.38;;;21.60;62.80;;;;;;6271247;28;20090;-69
2023/09/26 07:41:27;;;;;;;13.50;1.90;;;21.60;62.90;;;;;;6272584;28;20419;-69
2023/09/26 07:44:28;;;;;;;3.22;1.00;;;21.60;62.90;;;;;;6258626;28;20022;-69
2023/09/26 07:47:29;;;;;;;2.33;1.50;;;21.60;62.90;;;;;;6269316;28;20086;-69
2023/09/26 07:50:30;;;;;;;1.58;1.02;;;21.60;62.90;;;;;;6271323;28;20029;-69
2023/09/26 07:53:31;;;;;;;3.35;1.40;;;21.60;62.80;;;;;;6261569;28;20095;-69
2023/09/26 07:56:31;;;;;;;1.75;1.20;;;21.60;62.90;;;;;;6264139;28;20024;-69
2023/09/26 07:59:34;;;;;;;2.20;1.33;;;21.60;62.90;;;;;;6270438;28;20025;-69
2023/09/26 08:02:34;;;;;;;2.72;1.50;;;21.60;62.90;;;;;;6261741;28;20123;-69
2023/09/26 08:05:35;;;;;;;2.72;1.13;;;21.60;62.90;;;;;;6271982;28;20032;-69
2023/09/26 08:08:36;;;;;;;2.58;1.20;;;21.60;62.80;;;;;;6256693;28;20032;-69
2023/09/26 08:11:39;;;;;;;2.00;1.48;;;21.60;62.80;;;;;;6255414;28;20045;-69
2023/09/26 08:14:40;;;;;;;1.70;1.05;;;21.60;62.90;;;;;;6270517;28;20025;-69
2023/09/26 08:17:41;;;;;;;1.13;0.90;;;21.60;62.90;;;;;;6262228;28;20032;-69
2023/09/26 08:20:41;;;;;;;2.55;1.30;;;21.60;63.00;;;;;;6255194;28;20446;-69
2023/09/26 08:23:42;;;;;;;2.67;1.20;;;21.60;63.90;;;;;;6270592;28;20553;-69
2023/09/26 08:26:46;;;;;;;4.50;1.00;;;21.60;63.00;;;;;;6269722;28;20051;-69
2023/09/26 08:29:46;;;;;;;2.33;1.10;;;21.60;63.00;;;;;;6269941;28;20029;-69
2023/09/26 08:32:47;;;;;;;2.00;1.20;;;21.60;63.00;;;;;;6262914;28;20381;-69
2023/09/26 08:35:48;;;;;;;1.10;0.90;;;21.60;62.90;;;;;;6269042;28;20106;-69
2023/09/26 08:38:50;;;;;;;2.53;1.50;;;21.60;62.90;;;;;;6268232;28;20591;-69
2023/09/26 08:41:51;;;;;;;1.58;1.00;;;21.60;62.90;;;;;;6262734;28;20065;-69
2023/09/26 08:44:52;;;;;;;3.88;1.40;;;21.60;62.70;;;;;;6260933;28;20031;-69
2023/09/26 08:47:55;;;;;;;2.22;1.50;;;21.60;62.50;;;;;;6271063;28;20029;-69
2023/09/26 08:50:56;;;;;;;2.65;1.20;;;21.60;62.50;;;;;;6265682;28;20112;-69
2023/09/26 08:53:57;;;;;;;2.75;1.10;;;21.60;62.00;;;;;;6255300;28;20023;-69
2023/09/26 08:56:59;;;;;;;1.70;1.08;;;21.60;62.30;;;;;;6259621;28;20112;-69
2023/09/26 09:00:02;;;;;;;1.33;0.88;;;21.60;62.40;;;;;;6263764;28;20094;-69
2023/09/26 09:03:03;;;;;;;2.05;1.15;;;21.60;62.50;;;;;;6252855;28;20033;-69
2023/09/26 09:06:04;;;;;;;1.70;1.20;;;21.60;62.50;;;;;;6256909;28;20376;-68
2023/09/26 09:09:09;;;;;;;1.92;1.27;;;21.60;62.20;;;;;;6270058;28;20129;-69
2023/09/26 09:12:28;;;;;;;1.85;1.40;;;21.60;62.50;;;;;;6259187;28;20112;-69
2023/09/26 09:15:30;;;;;;;1.67;1.20;;;21.60;62.50;;;;;;6267121;28;20586;-69
2023/09/26 09:18:31;;;;;;;1.65;0.95;;;21.60;62.20;;;;;;6266330;28;20017;-69
2023/09/26 09:21:33;;;;;;;1.77;1.10;;;21.60;62.50;;;;;;6261564;28;20063;-69
2023/09/26 09:24:37;;;;;;;2.20;1.17;;;21.60;62.40;;;;;;6270143;28;20052;-69
2023/09/26 09:27:42;;;;;;;3.37;1.30;;;21.60;62.20;;;;;;6267506;28;20025;-69
2023/09/26 09:30:44;;;;;;;2.67;1.20;;;21.60;62.60;;;;;;6259543;28;20287;-69
2023/09/26 09:33:52;;;;;;;2.28;1.48;;;21.60;62.60;;;;;;6259395;28;20021;-69
2023/09/26 09:36:55;;;;;;;2.15;1.30;;;21.60;62.60;;;;;;6268928;28;20029;-69
2023/09/26 09:39:56;;;;;;;1.50;1.08;;;21.60;62.70;;;;;;6260387;28;20065;-68
2023/09/26 09:42:57;;;;;;;2.28;1.13;;;21.60;62.70;;;;;;6270183;28;20083;-69
2023/09/26 09:46:04;;;;;;;1.38;1.00;;;21.60;63.10;;;;;;6267143;28;20021;-69
2023/09/26 09:49:10;;;;;;;2.08;1.30;;;21.60;63.10;;;;;;6255368;28;20025;-69
2023/09/26 09:52:13;;;;;;;2.70;1.25;;;21.60;63.20;;;;;;6261778;28;20152;-69
2023/09/26 09:55:37;;;;;;;1.23;0.95;;;21.60;63.00;;;;;;6257443;28;20032;-69
2023/09/26 09:58:44;;;;;;;2.13;1.40;;;21.60;62.70;;;;;;6266738;28;20506;-69
2023/09/26 10:01:49;;;;;;;1.48;1.20;;;21.60;62.50;;;;;;6269700;28;20478;-69
2023/09/26 10:04:55;;;;;;;1.55;1.20;;;21.60;62.60;;;;;;6254077;28;20037;-69
2023/09/26 10:07:58;;;;;;;1.30;1.20;;;21.60;62.60;;;;;;6268745;28;20055;-69
2023/09/26 10:11:01;;;;;;;2.20;1.20;;;21.60;62.70;;;;;;6261559;28;20022;-69
2023/09/26 10:14:07;;;;;;;1.50;1.23;;;21.60;62.70;;;;;;6261723;28;20060;-69
2023/09/26 10:17:10;;;;;;;2.20;1.40;;;21.60;62.70;;;;;;6266766;28;20024;-69
2023/09/26 10:20:12;;;;;;;1.52;1.00;;;21.60;62.90;;;;;;6256604;28;20025;-69
2023/09/26 10:23:13;;;;;;;1.23;1.00;;;21.60;63.90;;;;;;6267319;28;20052;-69
2023/09/26 10:26:17;;;;;;;1.48;1.13;;;21.60;63.20;;;;;;6252353;28;20025;-69
2023/09/26 10:29:27;;;;;;;1.10;1.00;;;21.60;63.10;;;;;;6265493;28;20022;-69
2023/09/26 10:32:36;;;;;;;1.52;1.00;;;21.60;63.30;;;;;;6265319;28;20021;-69
2023/09/26 10:35:43;;;;;;;1.13;0.95;;;21.60;63.30;;;;;;6268541;28;20032;-69
2023/09/26 10:38:57;;;;;;;1.00;0.90;;;21.60;63.30;;;;;;6269038;28;20071;-69
2023/09/26 10:42:21;;;;;;;1.27;1.02;;;21.60;63.30;;;;;;6269330;28;20017;-69
2023/09/26 10:45:22;;;;;;;1.10;1.00;;;21.60;63.30;;;;;;6264979;28;20108;-69
2023/09/26 10:48:23;;;;;;;1.50;1.20;;;21.60;63.40;;;;;;6260013;28;20025;-69
2023/09/26 10:51:24;;;;;;;3.05;1.10;;;21.60;63.30;;;;;;6269588;28;20028;-69
2023/09/26 10:54:25;;;;;;;1.83;1.17;;;21.60;63.30;;;;;;6263222;28;20026;-69
2023/09/26 10:57:26;;;;;;;2.53;1.48;;;21.60;63.30;;;;;;6266378;28;20025;-69
2023/09/26 11:00:27;;;;;;;2.40;1.15;;;21.60;63.30;;;;;;6268394;28;20078;-69
2023/09/26 11:03:32;;;;;;;1.73;1.00;;;21.60;62.80;;;;;;6268507;28;20036;-69
2023/09/26 11:06:34;;;;;;;1.50;1.20;;;21.60;62.80;;;;;;6271421;28;20131;-69
2023/09/26 11:09:40;;;;;;;1.33;1.10;;;21.60;62.70;;;;;;6273502;28;20053;-69
2023/09/26 11:12:42;;;;;;;1.13;0.93;;;21.60;62.90;;;;;;6266342;28;20029;-69
2023/09/26 11:15:45;;;;;;;1.08;0.90;;;21.60;63.30;;;;;;6264453;28;20071;-69
2023/09/26 11:18:52;;;;;;;1.70;1.05;;;21.60;63.50;;;;;;6273372;28;20027;-69
2023/09/26 11:21:56;;;;;;;1.27;1.10;;;21.60;63.40;;;;;;6265582;28;20028;-68
2023/09/26 11:25:07;;;;;;;1.00;0.90;;;21.60;63.40;;;;;;6264472;28;20029;-69
2023/09/26 11:28:07;;;;;;;1.60;1.02;;;21.60;63.50;;;;;;6257669;28;20104;-69
2023/09/26 11:31:09;;;;;;;1.42;1.00;;;21.60;63.50;;;;;;6273166;28;20025;-69
2023/09/26 11:34:10;;;;;;;1.40;1.13;;;21.60;63.50;;;;;;6271665;28;20079;-69
2023/09/26 11:37:11;;;;;;;1.20;0.93;;;21.60;63.50;;;;;;6265103;28;20032;-69
2023/09/26 11:40:19;;;;;;;0.98;0.88;;;21.60;63.50;;;;;;6269555;28;20408;-69
2023/09/26 11:43:20;;;;;;;1.13;1.00;;;21.60;63.30;;;;;;6256744;28;20467;-69
2023/09/26 11:46:21;;;;;;;1.33;1.10;;;21.60;63.60;;;;;;6263705;28;20035;-69
2023/09/26 11:49:23;;;;;;;1.80;1.38;;;21.60;63.50;;;;;;6272624;28;20095;-69
2023/09/26 11:52:24;;;;;;;1.63;1.13;;;21.60;63.30;;;;;;6269145;28;20180;-69
2023/09/26 11:55:25;;;;;;;1.63;1.10;;;21.60;63.50;;;;;;6272282;28;20372;-69
2023/09/26 11:58:26;;;;;;;1.23;1.08;;;21.60;63.50;;;;;;6272488;28;20025;-69
2023/09/26 12:01:28;;;;;;;2.38;1.05;;;21.60;63.50;;;;;;6268235;28;20398;-69
2023/09/26 12:04:32;;;;;;;1.85;1.00;;;21.60;63.10;;;;;;6258514;28;20583;-69
2023/09/26 12:07:33;;;;;;;1.50;1.10;;;21.60;62.90;;;;;;6255729;28;20029;-69
2023/09/26 12:10:34;;;;;;;1.25;0.90;;;21.60;62.70;;;;;;6272452;28;20057;-69
2023/09/26 12:13:35;;;;;;;1.00;0.90;;;21.60;63.20;;;;;;6260496;28;20651;-69
2023/09/26 12:16:35;;;;;;;1.13;0.93;;;21.60;63.40;;;;;;6271811;28;20043;-69
2023/09/26 12:19:36;;;;;;;1.10;1.00;;;21.60;63.40;;;;;;6271589;28;20108;-69
2023/09/26 12:22:39;;;;;;;1.42;1.05;;;21.60;63.30;;;;;;6263954;28;20080;-69
2023/09/26 12:25:39;;;;;;;1.58;1.20;;;21.60;63.30;;;;;;6270277;28;20049;-69
2023/09/26 12:28:40;;;;;;;1.17;1.00;;;21.60;63.50;;;;;;6256609;28;20029;-69
2023/09/26 12:31:45;;;;;;;1.33;1.00;;;21.60;63.50;;;;;;6265712;28;20458;-67
2023/09/26 12:34:45;;;;;;;;;;;21.60;63.40;;;;;;6271809;28;20025;-67
2023/09/26 12:37:46;;;;;;;1.58;1.02;;;21.60;63.50;;;;;;6270898;28;19917;-67
2023/09/26 12:40:47;;;;;;;1.52;1.13;;;21.60;63.40;;;;;;6263957;28;20028;-67
2023/09/26 12:43:48;;;;;;;1.48;1.27;;;21.60;63.40;;;;;;6262484;28;20032;-67
2023/09/26 12:46:48;;;;;;;1.20;1.08;;;21.60;63.40;;;;;;6262870;28;20066;-67
2023/09/26 12:49:49;;;;;;;2.10;1.08;;;21.60;63.40;;;;;;6270485;28;20028;-67
2023/09/26 12:52:50;;;;;;;1.17;1.00;;;21.60;63.50;;;;;;6264287;28;20184;-67
2023/09/26 12:55:52;;;;;;;1.40;1.00;;;21.60;63.40;;;;;;6270699;28;20024;-67
2023/09/26 12:58:53;;;;;;;1.17;1.05;;;21.60;63.40;;;;;;6262169;28;20018;-67
2023/09/26 13:01:55;;;;;;;1.80;1.13;;;21.60;63.40;;;;;;6250259;28;20436;-67
2023/09/26 13:04:56;;;;;;;1.65;1.05;;;21.60;63.50;;;;;;6265413;28;20100;-66
2023/09/26 13:07:57;;;;;;;5.07;1.10;;;21.60;63.50;;;;;;6270217;28;20017;-67
2023/09/26 13:10:58;;;;;;;1.30;1.10;;;21.60;63.60;;;;;;6260204;28;20025;-67
2023/09/26 13:13:59;;;;;;;1.20;1.10;;;21.60;63.60;;;;;;6263617;28;20020;-67
2023/09/26 13:17:00;;;;;;;1.40;1.25;;;21.60;63.70;;;;;;6270532;28;20029;-67
2023/09/26 13:20:01;;;;;;;1.10;1.00;;;21.60;63.60;;;;;;6268619;28;20036;-67
2023/09/26 13:23:03;;;;;;;1.10;1.00;;;21.60;63.60;;;;;;6268728;28;20028;-67
2023/09/26 13:26:05;;;;;;;1.10;0.90;;;21.60;63.70;;;;;;6270446;28;20041;-67
2023/09/26 13:29:06;;;;;;;1.83;1.10;;;21.60;63.60;;;;;;6269826;28;20033;-66
2023/09/26 13:32:08;;;;;;;1.23;1.00;;;21.60;63.60;;;;;;6265606;28;20021;-67
2023/09/26 13:35:09;;;;;;;1.80;1.40;;;21.60;63.70;;;;;;6254082;28;20017;-67
2023/09/26 13:38:10;;;;;;;1.02;0.90;;;21.60;63.70;;;;;;6273732;28;20052;-66
2023/09/26 13:41:11;;;;;;;0.98;0.77;;;21.60;63.70;;;;;;6269670;28;20101;-66
2023/09/26 13:44:12;;;;;;;1.23;1.13;;;21.60;63.70;;;;;;6265878;28;20131;-66
2023/09/26 13:47:13;;;;;;;1.00;0.90;;;21.60;63.80;;;;;;6274482;28;20029;-67
2023/09/26 13:50:13;;;;;;;1.10;1.00;;;21.60;63.90;;;;;;6266535;28;20479;-67
2023/09/26 13:53:15;;;;;;;1.20;1.10;;;21.60;63.90;;;;;;6269394;28;20029;-66
2023/09/26 13:56:15;;;;;;;1.23;1.10;;;21.60;63.80;;;;;;6272191;28;20025;-66
2023/09/26 13:59:16;;;;;;;1.85;1.20;;;21.60;63.90;;;;;;6282456;28;20395;-67
2023/09/26 14:02:18;;;;;;;1.67;1.13;;;21.60;63.80;;;;;;6270826;28;20510;-67
2023/09/26 14:05:22;;;;;;;1.25;1.00;;;21.60;63.80;;;;;;6281815;28;20040;-67
2023/09/26 14:08:23;;;;;;;1.30;1.02;;;21.60;63.80;;;;;;6275859;28;20032;-67
2023/09/26 14:11:25;;;;;;;1.75;1.20;;;21.60;63.80;;;;;;6266067;28;20022;-67
2023/09/26 14:14:25;;;;;;;1.70;1.10;;;21.50;63.70;;;;;;6273962;28;20029;-67
2023/09/26 14:17:26;;;;;;;1.50;1.02;;;21.60;63.80;;;;;;6272962;28;20036;-67
2023/09/26 14:20:27;;;;;;;1.85;1.27;;;21.60;63.80;;;;;;6281744;28;20052;-67
2023/09/26 14:23:28;;;;;;;1.50;1.00;;;21.60;63.90;;;;;;6282704;28;20021;-67
2023/09/26 14:26:29;;;;;;;1.17;1.00;;;21.60;63.90;;;;;;6275073;28;20412;-66
2023/09/26 14:29:32;;;;;;;3.78;1.10;;;21.60;63.80;;;;;;6255804;28;20095;-67
2023/09/26 14:32:33;;;;;;;1.20;1.00;;;21.60;63.90;;;;;;6270078;28;20021;-67
2023/09/26 14:35:33;;;;;;;1.58;0.93;;;21.60;64.00;;;;;;6270602;28;20021;-67
2023/09/26 14:38:34;;;;;;;2.30;1.38;;;21.60;63.90;;;;;;6271268;28;20040;-67
2023/09/26 14:41:35;;;;;;;1.10;1.00;;;21.60;64.10;;;;;;6284322;28;20075;-67
2023/09/26 14:44:36;;;;;;;1.77;1.15;;;21.60;63.90;;;;;;6284321;28;20513;-67
2023/09/26 14:47:37;;;;;;;1.25;1.13;;;21.60;63.90;;;;;;6278280;28;20032;-67
2023/09/26 14:50:38;;;;;;;1.35;1.00;;;21.60;63.90;;;;;;6269176;28;20099;-67
2023/09/26 14:53:39;;;;;;;2.20;1.42;;;21.60;63.90;;;;;;6267372;28;20028;-67
2023/09/26 14:56:42;;;;;;;2.53;1.10;;;21.60;63.90;;;;;;6269811;28;20029;-67
2023/09/26 14:59:42;;;;;;;1.73;0.95;;;21.60;63.90;;;;;;6275728;28;20036;-67
2023/09/26 15:02:43;;;;;;;1.63;1.15;;;21.60;63.90;;;;;;6270778;28;20044;-68
2023/09/26 15:05:44;;;;;;;1.70;1.08;;;21.60;63.90;;;;;;6269818;28;20437;-67
2023/09/26 15:08:45;;;;;;;4.65;1.10;;;21.60;63.90;;;;;;6270401;28;20028;-69
2023/09/26 15:11:45;;;;;;;2.40;1.10;;;21.60;63.90;;;;;;6270144;28;20108;-69
2023/09/26 15:14:46;;;;;;;2.95;1.17;;;21.50;63.90;;;;;;6268841;28;20072;-70
2023/09/26 15:17:47;;;;;;;1.27;1.00;;;21.60;64.00;;;;;;6262407;28;20083;-69
2023/09/26 15:20:47;;;;;;;1.50;1.10;;;21.60;64.00;;;;;;6276881;28;20028;-69
2023/09/26 15:23:48;;;;;;;1.35;0.95;;;21.60;64.00;;;;;;6271174;28;20032;-69
2023/09/26 15:26:49;;;;;;;1.58;0.95;;;21.50;63.90;;;;;;6278173;28;20021;-69
2023/09/26 15:29:50;;;;;;;1.92;1.00;;;21.60;64.00;;;;;;6266848;28;20033;-69
2023/09/26 15:32:52;;;;;;;1.40;1.00;;;21.60;64.10;;;;;;6278110;28;20511;-69
2023/09/26 15:35:52;;;;;;;1.83;1.00;;;21.60;64.00;;;;;;6255889;28;20078;-70
2023/09/26 15:38:53;;;;;;;1.73;1.15;;;21.50;63.80;;;;;;6277115;28;20507;-69
2023/09/26 15:41:54;;;;;;;2.65;1.02;;;21.50;64.00;;;;;;6284438;28;20103;-69
2023/09/26 15:44:54;;;;;;;3.17;1.08;;;21.50;63.90;;;;;;6265285;28;20716;-69